Indianapolis, Indiana
Traffic Map
Current Weather Conditions
Indianapolis, Indiana
Overcast
Overcast
41°
Feels Like: 32°
Wind Chill: 32° Ceiling: 4700
Heat Index: 41° Visibility: 10mi
Dew Point: 22° Wind: 20mph
Humidity: 47% Direction: 230° (SW)
Pressure: 29.43in Gusts: 0mph
Raw Report DataKIND 132154Z 23017KT 10SM BKN047 OVC055 05/M06 A2943 RMK AO2 PK WND 24028/2100 SLP973 T00501056
Traffic Incident Summary
Active as of:
Severity:
Category:
InformationThere was an issue retrieving the traffic information for this location. Please try a different location or try again shortly.
Advertisements